createdAt,value
2023-03-30T00:00:01.394Z,98925.59
2023-03-30T00:02:32.234Z,98922.25
2023-03-30T00:05:03.406Z,98912.63
2023-03-30T00:07:30.827Z,98918.91
2023-03-30T00:09:58.898Z,98907.59
2023-03-30T00:12:25.757Z,98909.72
2023-03-30T00:14:52.677Z,98912.50
2023-03-30T00:17:19.524Z,98917.81
2023-03-30T00:19:46.443Z,98907.47
2023-03-30T00:22:13.343Z,98906.78
2023-03-30T00:24:40.200Z,98918.41
2023-03-30T00:27:07.241Z,98913.22
2023-03-30T00:29:34.163Z,98919.53
2023-03-30T00:32:01.482Z,98916.16
2023-03-30T00:34:28.311Z,98919.94
2023-03-30T00:36:56.990Z,98919.09
2023-03-30T00:39:26.896Z,98920.94
2023-03-30T00:41:53.727Z,98919.94
2023-03-30T00:44:39.287Z,98922.59
2023-03-30T00:47:06.369Z,98916.59
2023-03-30T00:49:35.011Z,98917.56
2023-03-30T00:52:02.757Z,98913.38
2023-03-30T00:54:30.099Z,98910.88
2023-03-30T00:56:56.991Z,98916.31
2023-03-30T00:59:23.907Z,98906.69
2023-03-30T01:01:50.872Z,98910.47
2023-03-30T01:04:17.699Z,98915.50
2023-03-30T01:06:46.716Z,98914.78
2023-03-30T01:09:14.194Z,98917.31
2023-03-30T01:11:42.387Z,98918.44
2023-03-30T01:14:10.629Z,98909.47
2023-03-30T01:17:01.906Z,98918.44
2023-03-30T01:19:37.768Z,98917.75
2023-03-30T01:22:23.158Z,98914.38
2023-03-30T01:25:10.415Z,98910.06
2023-03-30T01:27:55.936Z,98914.53
2023-03-30T01:30:22.742Z,98915.38
2023-03-30T01:32:55.857Z,98906.69
2023-03-30T01:35:26.070Z,98906.69
2023-03-30T01:38:05.049Z,98899.75
2023-03-30T01:40:44.894Z,98909.50
2023-03-30T01:43:19.827Z,98914.81
2023-03-30T01:45:58.512Z,98904.47
2023-03-30T01:48:45.754Z,98901.84
2023-03-30T01:51:24.381Z,98907.13
2023-03-30T01:53:57.485Z,98906.28
2023-03-30T01:56:28.933Z,98906.16
2023-03-30T01:58:59.189Z,98907.81
2023-03-30T02:01:28.009Z,98897.38
2023-03-30T02:03:58.040Z,98905.31
2023-03-30T02:06:40.224Z,98905.31
2023-03-30T02:09:09.229Z,98901.84
2023-03-30T02:11:38.509Z,98902.25
2023-03-30T02:14:06.207Z,98907.13
2023-03-30T02:16:40.903Z,98914.25
2023-03-30T02:19:08.128Z,98909.94
2023-03-30T02:21:35.648Z,98906.28
2023-03-30T02:24:03.957Z,98908.94
2023-03-30T02:26:31.141Z,98908.94
2023-03-30T02:28:58.320Z,98902.81
2023-03-30T02:31:25.170Z,98904.63
2023-03-30T02:34:15.311Z,98902.00
2023-03-30T02:36:51.183Z,98902.69
2023-03-30T02:39:18.058Z,98903.63
2023-03-30T02:42:00.951Z,98905.31
2023-03-30T02:44:40.005Z,98901.00
2023-03-30T02:47:25.591Z,98899.34
2023-03-30T02:50:01.893Z,98902.69
2023-03-30T02:52:47.145Z,98902.00
2023-03-30T02:55:17.346Z,98902.00
2023-03-30T02:57:47.126Z,98910.91
2023-03-30T03:00:32.784Z,98906.44
2023-03-30T03:03:02.614Z,98908.94
2023-03-30T03:05:29.674Z,98904.47
2023-03-30T03:07:56.910Z,98907.28
2023-03-30T03:10:23.781Z,98910.63
2023-03-30T03:12:50.788Z,98904.47
2023-03-30T03:15:17.629Z,98909.78
2023-03-30T03:17:45.617Z,98915.94
2023-03-30T03:20:12.510Z,98909.66
2023-03-30T03:22:39.286Z,98908.66
2023-03-30T03:25:06.280Z,98907.81
2023-03-30T03:27:33.136Z,98908.66
2023-03-30T03:29:59.929Z,98906.00
2023-03-30T03:32:26.888Z,98907.13
2023-03-30T03:34:54.058Z,98904.75
2023-03-30T03:37:20.929Z,98908.22
2023-03-30T03:39:47.698Z,98917.03
2023-03-30T03:42:14.586Z,98913.41
2023-03-30T03:44:41.450Z,98908.09
2023-03-30T03:47:08.572Z,98902.81
2023-03-30T03:49:35.579Z,98908.09
2023-03-30T03:52:02.406Z,98908.94
2023-03-30T03:54:29.214Z,98906.13
2023-03-30T03:56:56.058Z,98903.66
2023-03-30T03:59:22.909Z,98903.50
2023-03-30T04:01:49.842Z,98907.81
2023-03-30T04:04:17.156Z,98908.66
2023-03-30T04:06:43.974Z,98911.16
2023-03-30T04:09:10.898Z,98907.53
2023-03-30T04:11:37.788Z,98911.00
2023-03-30T04:14:04.588Z,98919.81
2023-03-30T04:16:31.474Z,98920.66
2023-03-30T04:18:58.432Z,98919.81
2023-03-30T04:21:25.651Z,98914.22
2023-03-30T04:23:52.616Z,98916.88
2023-03-30T04:26:19.450Z,98916.19
2023-03-30T04:28:47.273Z,98909.88
2023-03-30T04:31:14.442Z,98907.22
2023-03-30T04:34:01.950Z,98910.03
2023-03-30T04:36:31.542Z,98914.38
2023-03-30T04:39:01.068Z,98915.19
2023-03-30T04:41:36.220Z,98913.38
2023-03-30T04:44:07.763Z,98915.91
2023-03-30T04:46:34.601Z,98923.03
2023-03-30T04:49:01.507Z,98923.88
2023-03-30T04:51:28.779Z,98917.97
2023-03-30T04:53:55.883Z,98913.66
2023-03-30T04:56:22.910Z,98907.78
2023-03-30T04:58:49.719Z,98915.63
2023-03-30T05:01:16.650Z,98917.56
2023-03-30T05:03:43.793Z,98920.06
2023-03-30T05:06:11.678Z,98923.91
2023-03-30T05:08:39.982Z,98923.75
2023-03-30T05:11:08.552Z,98926.50
2023-03-30T05:13:35.325Z,98926.09
2023-03-30T05:16:02.087Z,98930.13
2023-03-30T05:18:28.892Z,98929.28
2023-03-30T05:20:59.071Z,98940.28
2023-03-30T05:23:26.630Z,98935.31
2023-03-30T05:25:55.507Z,98947.56
2023-03-30T05:28:22.756Z,98947.13
2023-03-30T05:30:58.707Z,98955.09
2023-03-30T05:33:25.562Z,98953.16
2023-03-30T05:35:52.538Z,98943.22
2023-03-30T05:38:19.502Z,98955.72
2023-03-30T05:40:46.525Z,98957.44
2023-03-30T05:43:13.391Z,98959.94
2023-03-30T05:45:40.363Z,98964.09
2023-03-30T05:48:07.467Z,98962.66
2023-03-30T05:50:34.433Z,98959.59
2023-03-30T05:53:01.915Z,98967.25
2023-03-30T05:55:29.238Z,98968.81
2023-03-30T05:57:57.165Z,98966.69
2023-03-30T06:00:24.538Z,98962.06
2023-03-30T06:02:52.532Z,98961.09
2023-03-30T06:05:19.764Z,98965.44
2023-03-30T06:07:49.476Z,98969.63
2023-03-30T06:10:19.665Z,98970.31
2023-03-30T06:12:46.523Z,98969.34
2023-03-30T06:15:13.499Z,98969.75
2023-03-30T06:17:40.400Z,98966.81
2023-03-30T06:20:11.571Z,98965.72
2023-03-30T06:22:39.223Z,98968.47
2023-03-30T06:25:06.391Z,98969.72
2023-03-30T06:27:33.362Z,98966.44
2023-03-30T06:30:00.222Z,98965.19
2023-03-30T06:32:29.882Z,98969.50
2023-03-30T06:34:57.294Z,98972.72
2023-03-30T06:37:24.413Z,98976.34
2023-03-30T06:39:51.254Z,98986.72
2023-03-30T06:42:18.205Z,98987.28
2023-03-30T06:44:45.342Z,98989.53
2023-03-30T06:47:12.483Z,98990.38
2023-03-30T06:49:39.372Z,98991.25
2023-03-30T06:52:08.194Z,98996.25
2023-03-30T06:54:35.697Z,98990.78
2023-03-30T06:57:02.632Z,98993.28
2023-03-30T06:59:30.264Z,98984.50
2023-03-30T07:01:58.425Z,98994.28
2023-03-30T07:04:25.356Z,98995.94
2023-03-30T07:06:52.650Z,99001.13
2023-03-30T07:09:19.800Z,99000.97
2023-03-30T07:11:47.138Z,99008.25
2023-03-30T07:14:14.101Z,98999.31
2023-03-30T07:16:41.297Z,98994.00
2023-03-30T07:19:08.481Z,98999.31
2023-03-30T07:21:35.359Z,99009.66
2023-03-30T07:24:02.163Z,99005.16
2023-03-30T07:26:29.712Z,99013.69
2023-03-30T07:28:57.205Z,99010.47
2023-03-30T07:31:24.882Z,99016.44
2023-03-30T07:33:52.331Z,99018.84
2023-03-30T07:36:20.040Z,99019.53
2023-03-30T07:38:47.263Z,99019.38
2023-03-30T07:41:16.139Z,99030.72
2023-03-30T07:43:43.132Z,99033.91
2023-03-30T07:46:12.520Z,99031.13
2023-03-30T07:48:42.223Z,99030.84
2023-03-30T07:51:10.797Z,99032.50
2023-03-30T07:53:37.979Z,99034.72
2023-03-30T07:56:05.973Z,99041.41
2023-03-30T07:58:33.496Z,99043.09
2023-03-30T08:01:03.097Z,99039.44
2023-03-30T08:03:32.422Z,99043.94
2023-03-30T08:06:01.299Z,99047.56
2023-03-30T08:08:28.606Z,99051.47
2023-03-30T08:13:45.117Z,99051.41
2023-03-30T08:16:12.243Z,99038.81
2023-03-30T08:18:41.751Z,99040.38
2023-03-30T08:21:08.714Z,99049.16
2023-03-30T08:23:35.678Z,99055.31
2023-03-30T08:26:02.761Z,99060.63
2023-03-30T08:28:29.687Z,99051.97
2023-03-30T08:30:56.676Z,99057.75
2023-03-30T08:33:24.650Z,99064.06
2023-03-30T08:35:51.694Z,99069.69
2023-03-30T08:38:19.414Z,99067.69
2023-03-30T08:40:50.077Z,99072.16
2023-03-30T08:43:30.291Z,99071.94
2023-03-30T08:45:59.317Z,99085.94
2023-03-30T08:48:28.044Z,99076.97
2023-03-30T08:50:55.094Z,99079.91
2023-03-30T08:53:22.567Z,99080.34
2023-03-30T08:56:08.210Z,99083.00
2023-03-30T08:58:35.142Z,99085.34
2023-03-30T09:01:17.579Z,99081.72
2023-03-30T09:04:05.083Z,99094.56
2023-03-30T09:06:46.047Z,99094.44
2023-03-30T09:09:14.501Z,99094.56
2023-03-30T09:11:41.909Z,99092.44
2023-03-30T09:14:13.202Z,99092.75
2023-03-30T09:16:47.285Z,99089.41
2023-03-30T09:19:25.499Z,99086.56
2023-03-30T09:21:54.204Z,99089.78
2023-03-30T09:24:26.213Z,99093.13
2023-03-30T09:27:13.416Z,99098.16
2023-03-30T09:29:52.265Z,99097.72
2023-03-30T09:32:32.557Z,99112.53
2023-03-30T09:35:01.227Z,99103.59
2023-03-30T09:37:28.357Z,99104.97
2023-03-30T09:39:55.683Z,99110.97
2023-03-30T09:42:37.015Z,99106.06
2023-03-30T09:45:40.920Z,99111.72
2023-03-30T09:48:09.401Z,99121.13
2023-03-30T09:50:43.458Z,99118.47
2023-03-30T09:53:22.601Z,99127.41
2023-03-30T09:55:59.112Z,99127.69
2023-03-30T09:58:30.896Z,99132.03
2023-03-30T10:01:08.820Z,99139.72
2023-03-30T10:03:36.824Z,99133.97
2023-03-30T10:06:09.169Z,99137.03
2023-03-30T10:08:43.864Z,99138.25
2023-03-30T10:11:12.149Z,99142.44
2023-03-30T10:13:43.093Z,99143.97
2023-03-30T10:16:25.354Z,99146.06
2023-03-30T10:19:05.304Z,99142.13
2023-03-30T10:21:39.307Z,99129.81
2023-03-30T10:24:15.282Z,99138.94
2023-03-30T10:26:47.041Z,99139.47
2023-03-30T10:29:18.782Z,99142.13
2023-03-30T10:31:51.496Z,99142.66
2023-03-30T10:34:23.987Z,99153.88
2023-03-30T10:36:55.075Z,99146.78
2023-03-30T10:39:30.536Z,99149.59
2023-03-30T10:42:02.055Z,99152.13
2023-03-30T10:44:46.650Z,99152.63
2023-03-30T10:47:50.867Z,99160.03
2023-03-30T10:50:30.975Z,99150.84
2023-03-30T10:53:33.448Z,99149.25
2023-03-30T10:56:12.424Z,99146.44
2023-03-30T10:58:42.150Z,99151.78
2023-03-30T11:01:30.543Z,99152.47
2023-03-30T11:04:16.036Z,99157.50
2023-03-30T11:06:51.157Z,99151.47
2023-03-30T11:09:27.807Z,99146.44
2023-03-30T11:12:06.089Z,99154.56
2023-03-30T11:14:53.614Z,99161.59
2023-03-30T11:17:27.533Z,99167.03
2023-03-30T11:19:58.622Z,99170.53
2023-03-30T11:22:41.784Z,99169.41
2023-03-30T11:25:21.396Z,99170.41
2023-03-30T11:28:00.207Z,99175.56
2023-03-30T11:30:30.565Z,99167.75
2023-03-30T11:33:06.927Z,99173.91
2023-03-30T11:35:56.308Z,99168.97
2023-03-30T11:38:48.368Z,99168.59
2023-03-30T11:41:23.897Z,99168.88
2023-03-30T11:43:56.287Z,99167.19
2023-03-30T11:46:40.776Z,99163.97
2023-03-30T11:49:52.412Z,99165.97
2023-03-30T11:52:36.192Z,99165.00
2023-03-30T11:55:12.217Z,99171.28
2023-03-30T11:58:00.052Z,99171.44
2023-03-30T12:00:32.956Z,99172.59
2023-03-30T12:03:14.203Z,99175.25
2023-03-30T12:05:46.392Z,99179.84
2023-03-30T12:08:21.411Z,99173.00
2023-03-30T12:10:55.688Z,99169.53
2023-03-30T12:13:22.955Z,99168.69
2023-03-30T12:16:01.198Z,99175.84
2023-03-30T12:18:40.385Z,99173.47
2023-03-30T12:21:41.636Z,99176.81
2023-03-30T12:24:34.548Z,99182.13
2023-03-30T12:27:06.103Z,99175.16
2023-03-30T12:30:15.337Z,99175.78
2023-03-30T12:33:02.559Z,99167.69
2023-03-30T12:35:48.513Z,99180.59
2023-03-30T12:38:23.924Z,99171.03
2023-03-30T12:41:14.845Z,99171.88
2023-03-30T12:44:17.921Z,99179.13
2023-03-30T12:47:12.979Z,99176.59
2023-03-30T12:50:12.911Z,99163.41
2023-03-30T12:53:03.805Z,99164.22
2023-03-30T12:55:31.176Z,99148.53
2023-03-30T12:58:17.532Z,99169.59
2023-03-30T13:01:13.239Z,99166.44
2023-03-30T13:03:53.241Z,99167.78
2023-03-30T13:06:32.670Z,99171.69
2023-03-30T13:09:08.623Z,99179.44
2023-03-30T13:11:46.326Z,99175.38
2023-03-30T13:14:39.659Z,99171.66
2023-03-30T13:17:20.961Z,99170.81
2023-03-30T13:20:26.178Z,99173.13
2023-03-30T13:23:12.008Z,99172.13
2023-03-30T13:25:50.210Z,99170.03
2023-03-30T13:28:38.600Z,99164.13
2023-03-30T13:31:27.337Z,99158.34
2023-03-30T13:34:05.372Z,99157.22
2023-03-30T13:36:38.334Z,99163.09
2023-03-30T13:39:19.284Z,99161.63
2023-03-30T13:41:56.145Z,99150.97
2023-03-30T13:44:29.202Z,99159.47
2023-03-30T13:47:14.604Z,99155.59
2023-03-30T13:50:03.892Z,99150.03
2023-03-30T13:52:38.374Z,99148.94
2023-03-30T13:55:16.437Z,99150.66
2023-03-30T13:57:44.994Z,99144.56
2023-03-30T14:00:28.851Z,99146.41
2023-03-30T14:02:56.373Z,99143.88
2023-03-30T14:05:26.781Z,99148.06
2023-03-30T14:07:58.582Z,99143.97
2023-03-30T14:10:27.402Z,99146.94
2023-03-30T14:12:57.107Z,99139.38
2023-03-30T14:15:40.169Z,99141.47
2023-03-30T14:18:13.595Z,99144.78
2023-03-30T14:21:03.310Z,99145.16
2023-03-30T14:23:40.972Z,99140.94
2023-03-30T14:26:23.017Z,99131.28
2023-03-30T14:28:57.837Z,99136.97
2023-03-30T14:31:27.734Z,99134.50
2023-03-30T14:33:55.423Z,99134.31
2023-03-30T14:36:23.135Z,99141.16
2023-03-30T14:38:53.634Z,99134.88
2023-03-30T14:41:29.023Z,99139.53
2023-03-30T14:44:08.368Z,99130.91
2023-03-30T14:46:42.907Z,99136.50
2023-03-30T14:49:30.654Z,99132.78
2023-03-30T14:52:14.811Z,99142.16
2023-03-30T14:54:48.777Z,99124.66
2023-03-30T14:57:32.169Z,99131.69
2023-03-30T15:00:25.316Z,99127.50
2023-03-30T15:03:02.782Z,99116.47
2023-03-30T15:05:34.431Z,99116.78
2023-03-30T15:08:04.408Z,99116.78
2023-03-30T15:10:44.505Z,99117.91
2023-03-30T15:13:19.904Z,99114.56
2023-03-30T15:15:47.152Z,99117.06
2023-03-30T15:18:22.583Z,99105.47
2023-03-30T15:20:51.291Z,99101.78
2023-03-30T15:23:18.690Z,99105.16
2023-03-30T15:25:46.277Z,99088.59
2023-03-30T15:28:19.539Z,99093.03
2023-03-30T15:30:53.099Z,99087.44
2023-03-30T15:33:20.375Z,99087.97
2023-03-30T15:35:52.113Z,99083.88
2023-03-30T15:38:28.547Z,99089.75
2023-03-30T15:40:55.621Z,99087.78
2023-03-30T15:43:28.234Z,99090.00
2023-03-30T15:46:05.844Z,99095.72
2023-03-30T15:48:53.978Z,99097.22
2023-03-30T15:51:36.434Z,99107.03
2023-03-30T15:54:16.468Z,99096.94
2023-03-30T15:57:13.616Z,99102.78
2023-03-30T15:59:43.918Z,99102.09
2023-03-30T16:02:21.388Z,99105.59
2023-03-30T16:04:52.011Z,99109.94
2023-03-30T16:07:27.385Z,99119.19
2023-03-30T16:09:54.394Z,99117.50
2023-03-30T16:12:28.109Z,99108.41
2023-03-30T16:14:56.810Z,99117.09
2023-03-30T16:17:24.130Z,99117.09
2023-03-30T16:19:51.358Z,99109.50
2023-03-30T16:22:18.743Z,99117.94
2023-03-30T16:24:46.660Z,99114.94
2023-03-30T16:27:15.378Z,99106.03
2023-03-30T16:29:42.484Z,99096.38
2023-03-30T16:32:09.735Z,99106.72
2023-03-30T16:34:37.255Z,99104.59
2023-03-30T16:37:04.249Z,99095.31
2023-03-30T16:39:31.685Z,99100.34
2023-03-30T16:41:58.687Z,99102.16
2023-03-30T16:44:25.881Z,99104.66
2023-03-30T16:46:54.084Z,99105.34
2023-03-30T16:49:26.841Z,99098.06
2023-03-30T16:51:57.522Z,99105.06
2023-03-30T16:54:31.913Z,99102.38
2023-03-30T16:57:03.823Z,99111.75
2023-03-30T16:59:32.691Z,99107.28
2023-03-30T17:02:00.683Z,99094.09
2023-03-30T17:04:27.903Z,99097.16
2023-03-30T17:06:55.322Z,99106.66
2023-03-30T17:09:22.943Z,99105.53
2023-03-30T17:11:51.219Z,99106.22
2023-03-30T17:14:21.034Z,99099.59
2023-03-30T17:16:48.115Z,99106.31
2023-03-30T17:19:15.885Z,99107.38
2023-03-30T17:21:44.343Z,99096.78
2023-03-30T17:24:13.276Z,99112.97
2023-03-30T17:26:41.475Z,99111.91
2023-03-30T17:29:10.827Z,99126.13
2023-03-30T17:31:39.103Z,99119.44
2023-03-30T17:34:07.603Z,99122.47
2023-03-30T17:36:34.680Z,99118.91
2023-03-30T17:39:05.479Z,99115.44
2023-03-30T17:41:34.038Z,99116.59
2023-03-30T17:44:01.349Z,99108.31
2023-03-30T17:46:28.672Z,99100.19
2023-03-30T17:48:55.808Z,99103.41
2023-03-30T17:51:22.871Z,99108.97
2023-03-30T17:53:49.825Z,99103.84
2023-03-30T17:56:17.109Z,99104.31
2023-03-30T17:58:44.348Z,99106.75
2023-03-30T18:01:13.253Z,99118.00
2023-03-30T18:03:40.692Z,99112.38
2023-03-30T18:06:08.614Z,99106.38
2023-03-30T18:08:36.410Z,99104.16
2023-03-30T18:11:04.689Z,99108.94
2023-03-30T18:13:32.161Z,99106.56
2023-03-30T18:16:00.739Z,99106.56
2023-03-30T18:18:30.176Z,99112.25
2023-03-30T18:21:05.558Z,99109.72
2023-03-30T18:23:34.889Z,99099.72
2023-03-30T18:26:04.244Z,99095.41
2023-03-30T18:28:32.144Z,99094.72
2023-03-30T18:31:01.099Z,99085.59
2023-03-30T18:33:28.931Z,99087.41
2023-03-30T18:36:05.363Z,99091.22
2023-03-30T18:38:33.657Z,99091.22
2023-03-30T18:41:01.848Z,99080.03
2023-03-30T18:43:29.346Z,99089.72
2023-03-30T18:46:01.043Z,99089.19
2023-03-30T18:48:29.170Z,99091.84
2023-03-30T18:50:57.063Z,99094.66
2023-03-30T18:53:27.106Z,99092.44
2023-03-30T18:55:58.261Z,99097.75
2023-03-30T18:58:28.071Z,99101.44
2023-03-30T19:00:56.280Z,99091.94
2023-03-30T19:03:25.234Z,99086.59
2023-03-30T19:05:52.508Z,99093.59
2023-03-30T19:08:23.315Z,99097.25
2023-03-30T19:10:53.424Z,99092.38
2023-03-30T19:13:22.036Z,99102.16
2023-03-30T19:15:51.396Z,99099.84
2023-03-30T19:18:19.264Z,99098.00
2023-03-30T19:20:50.358Z,99099.31
2023-03-30T19:23:17.852Z,99094.94
2023-03-30T19:25:45.978Z,99093.13
2023-03-30T19:28:15.566Z,99090.09
2023-03-30T19:30:45.379Z,99097.78
2023-03-30T19:33:20.207Z,99095.59
2023-03-30T19:35:47.702Z,99101.88
2023-03-30T19:38:15.681Z,99104.84
2023-03-30T19:40:43.655Z,99090.84
2023-03-30T19:43:11.581Z,99095.16
2023-03-30T19:45:42.367Z,99094.78
2023-03-30T19:48:10.699Z,99087.25
2023-03-30T19:50:40.097Z,99086.72
2023-03-30T19:53:07.599Z,99085.75
2023-03-30T19:55:35.495Z,99083.53
2023-03-30T19:58:02.857Z,99090.00
2023-03-30T20:00:33.069Z,99087.63
2023-03-30T20:03:00.441Z,99097.59
2023-03-30T20:05:27.834Z,99091.88
2023-03-30T20:07:55.004Z,99088.69
2023-03-30T20:10:25.310Z,99087.25
2023-03-30T20:12:53.426Z,99083.91
2023-03-30T20:15:22.296Z,99090.38
2023-03-30T20:17:49.697Z,99085.22
2023-03-30T20:20:23.286Z,99083.81
2023-03-30T20:22:54.061Z,99083.28
2023-03-30T20:25:22.206Z,99076.44
2023-03-30T20:27:49.919Z,99074.91
2023-03-30T20:30:17.539Z,99077.56
2023-03-30T20:32:59.551Z,99071.56
2023-03-30T20:35:32.484Z,99069.75
2023-03-30T20:37:59.884Z,99062.53
2023-03-30T20:40:27.855Z,99058.84
2023-03-30T20:43:03.738Z,99068.97
2023-03-30T20:45:31.504Z,99067.44
2023-03-30T20:47:59.014Z,99060.44
2023-03-30T20:50:26.169Z,99057.22
2023-03-30T20:52:54.362Z,99058.66
2023-03-30T20:55:21.885Z,99051.69
2023-03-30T20:57:48.935Z,99044.38
2023-03-30T21:00:16.720Z,99046.00
2023-03-30T21:02:44.022Z,99045.13
2023-03-30T21:05:11.302Z,99044.00
2023-03-30T21:07:42.770Z,99044.22
2023-03-30T21:10:11.948Z,99037.09
2023-03-30T21:12:39.121Z,99040.44
2023-03-30T21:15:10.203Z,99035.50
2023-03-30T21:17:37.366Z,99039.00
2023-03-30T21:20:09.647Z,99031.81
2023-03-30T21:22:36.857Z,99025.69
2023-03-30T21:25:04.148Z,99027.50
2023-03-30T21:27:33.120Z,99026.66
2023-03-30T21:30:00.294Z,99018.50
2023-03-30T21:32:29.359Z,99010.69
2023-03-30T21:34:58.422Z,99018.69
2023-03-30T21:37:25.589Z,99010.31
2023-03-30T21:39:53.692Z,99009.28
2023-03-30T21:42:20.804Z,99002.50
2023-03-30T21:44:48.011Z,98990.91
2023-03-30T21:47:16.977Z,98989.59
2023-03-30T21:49:44.313Z,98981.31
2023-03-30T21:52:11.728Z,98982.00
2023-03-30T21:54:38.805Z,98984.09
2023-03-30T21:57:06.257Z,98992.06
2023-03-30T21:59:33.268Z,98993.31
2023-03-30T22:02:00.656Z,98994.69
2023-03-30T22:04:28.009Z,98999.09
2023-03-30T22:06:56.572Z,99001.75
2023-03-30T22:09:23.985Z,99005.75
2023-03-30T22:11:53.506Z,99002.44
2023-03-30T22:14:20.819Z,98999.47
2023-03-30T22:16:48.081Z,98993.09
2023-03-30T22:19:15.344Z,98984.66
2023-03-30T22:21:42.750Z,98984.19
2023-03-30T22:24:12.382Z,98982.38
2023-03-30T22:26:39.659Z,98983.66
2023-03-30T22:29:07.114Z,98980.19
2023-03-30T22:31:34.337Z,98976.59
2023-03-30T22:34:01.493Z,98981.53
2023-03-30T22:36:33.660Z,98976.66
2023-03-30T22:39:02.557Z,98979.63
2023-03-30T22:41:29.948Z,98973.59
2023-03-30T22:43:58.712Z,98974.72
2023-03-30T22:46:27.401Z,98973.91
2023-03-30T22:48:56.235Z,98976.03
2023-03-30T22:51:26.788Z,98973.38
2023-03-30T22:54:00.252Z,98968.19
2023-03-30T22:56:29.849Z,98975.63
2023-03-30T22:58:57.495Z,98974.13
2023-03-30T23:01:24.711Z,98967.28
2023-03-30T23:03:53.532Z,98968.09
2023-03-30T23:06:20.831Z,98971.75
2023-03-30T23:08:49.174Z,98966.72
2023-03-30T23:11:16.521Z,98964.06
2023-03-30T23:13:43.624Z,98958.38
2023-03-30T23:16:11.026Z,98954.19
2023-03-30T23:18:38.660Z,98949.84
2023-03-30T23:21:07.643Z,98951.97
2023-03-30T23:23:38.679Z,98943.28
2023-03-30T23:26:09.407Z,98940.25
2023-03-30T23:28:40.730Z,98940.53
2023-03-30T23:31:15.827Z,98934.53
2023-03-30T23:33:43.741Z,98935.66
2023-03-30T23:36:17.605Z,98929.50
2023-03-30T23:38:45.716Z,98935.84
2023-03-30T23:41:17.936Z,98928.81
2023-03-30T23:43:46.142Z,98930.19
2023-03-30T23:46:13.904Z,98940.41
2023-03-30T23:48:41.534Z,98943.34
2023-03-30T23:51:09.479Z,98941.81
2023-03-30T23:53:40.561Z,98934.28
2023-03-30T23:56:14.018Z,98934.59
2023-03-30T23:58:41.762Z,98931.09
